Terminal Aerodrome Forecast
Issued by NWS Portland, OR

Home | Current Version | Previous Version | Text Only | Print | Product List | Glossary On
Versions: 1 2 3 4 5 6 7 8 9 10 11 12 13 14 15 16 17 18 19 20 21 22 23 24 25 26 27 28
423
FTUS46 KPQR 212328
TAFAST
TAF
KAST 212328Z 2200/2224 09006KT 6SM -RA OVC025
     FM220300 13004KT P6SM OVC050
     FM220800 08004KT P6SM OVC050
     FM221200 16015G26KT 6SM -RA SCT020 OVC035=

USA.gov is the U.S. government's official web portal to all federal, state and local government web resources and services.